createdAt,value
2023-04-09T00:00:01.561Z,8.10
2023-04-09T00:03:04.800Z,9.23
2023-04-09T00:06:08.060Z,7.03
2023-04-09T00:09:11.011Z,9.07
2023-04-09T00:12:15.630Z,7.77
2023-04-09T00:15:30.039Z,7.87
2023-04-09T00:18:40.367Z,9.60
2023-04-09T00:21:43.676Z,8.77
2023-04-09T00:24:46.472Z,9.90
2023-04-09T00:27:50.657Z,10.17
2023-04-09T00:30:53.651Z,9.23
2023-04-09T00:33:56.524Z,8.13
2023-04-09T00:36:59.321Z,8.67
2023-04-09T00:40:01.994Z,7.00
2023-04-09T00:43:06.748Z,7.47
2023-04-09T00:46:09.559Z,8.30
2023-04-09T00:49:12.369Z,7.10
2023-04-09T00:52:15.569Z,8.37
2023-04-09T00:55:19.750Z,8.27
2023-04-09T00:58:23.909Z,7.60
2023-04-09T01:01:26.730Z,7.90
2023-04-09T01:04:29.572Z,9.03
2023-04-09T01:07:43.463Z,6.10
2023-04-09T01:10:52.861Z,6.80
2023-04-09T01:14:06.235Z,9.07
2023-04-09T01:17:16.563Z,8.07
2023-04-09T01:20:28.484Z,7.07
2023-04-09T01:23:46.462Z,7.03
2023-04-09T01:26:58.306Z,8.03
2023-04-09T01:30:06.554Z,7.57
2023-04-09T01:33:12.577Z,9.27
2023-04-09T01:36:15.823Z,8.63
2023-04-09T01:39:18.986Z,7.20
2023-04-09T01:42:22.527Z,6.73
2023-04-09T01:45:27.268Z,6.43
2023-04-09T01:48:31.274Z,7.67
2023-04-09T01:51:34.312Z,6.90
2023-04-09T01:54:37.239Z,9.80
2023-04-09T01:57:39.915Z,8.73
2023-04-09T02:00:48.146Z,7.67
2023-04-09T02:03:57.997Z,7.53
2023-04-09T02:07:06.358Z,9.23
2023-04-09T02:10:12.034Z,7.47
2023-04-09T02:13:18.242Z,9.40
2023-04-09T02:16:23.692Z,6.03
2023-04-09T02:19:26.669Z,7.83
2023-04-09T02:22:30.022Z,6.60
2023-04-09T02:25:33.039Z,8.03
2023-04-09T02:28:35.890Z,10.83
2023-04-09T02:31:40.094Z,9.43
2023-04-09T02:34:43.081Z,7.33
2023-04-09T02:37:45.861Z,9.53
2023-04-09T02:40:48.633Z,7.73
2023-04-09T02:43:51.337Z,7.90
2023-04-09T02:46:55.477Z,8.87
2023-04-09T02:49:58.151Z,9.67
2023-04-09T02:53:00.861Z,8.90
2023-04-09T02:56:03.592Z,7.40
2023-04-09T02:59:06.462Z,7.43
2023-04-09T03:02:10.614Z,8.67
2023-04-09T03:05:13.453Z,8.37
2023-04-09T03:08:16.354Z,8.43
2023-04-09T03:11:19.043Z,9.10
2023-04-09T03:14:22.173Z,6.67
2023-04-09T03:17:27.211Z,7.23
2023-04-09T03:20:30.055Z,8.07
2023-04-09T03:23:34.980Z,7.97
2023-04-09T03:26:38.026Z,7.77
2023-04-09T03:29:40.931Z,8.70
2023-04-09T03:32:44.985Z,10.07
2023-04-09T03:35:47.765Z,7.70
2023-04-09T03:38:50.876Z,9.33
2023-04-09T03:41:53.700Z,9.40
2023-04-09T03:44:56.398Z,7.40
2023-04-09T03:48:00.689Z,8.70
2023-04-09T03:51:03.487Z,7.47
2023-04-09T03:54:06.183Z,8.70
2023-04-09T03:57:08.878Z,7.60
2023-04-09T04:00:12.296Z,8.97
2023-04-09T04:03:17.157Z,9.17
2023-04-09T04:06:20.019Z,8.97
2023-04-09T04:09:22.920Z,10.83
2023-04-09T04:12:25.867Z,8.60
2023-04-09T04:15:28.566Z,8.37
2023-04-09T04:18:32.604Z,9.03
2023-04-09T04:21:35.427Z,9.17
2023-04-09T04:24:38.213Z,9.13
2023-04-09T04:27:42.643Z,9.53
2023-04-09T04:30:45.498Z,9.93
2023-04-09T04:33:49.548Z,10.30
2023-04-09T04:36:52.241Z,8.63
2023-04-09T04:39:54.920Z,9.30
2023-04-09T04:42:57.620Z,9.97
2023-04-09T04:46:00.598Z,8.33
2023-04-09T04:49:05.171Z,8.00
2023-04-09T04:52:07.958Z,10.97
2023-04-09T04:55:11.147Z,8.50
2023-04-09T04:58:13.815Z,8.63
2023-04-09T05:01:16.554Z,7.37
2023-04-09T05:04:20.712Z,8.73
2023-04-09T05:07:23.362Z,9.20
2023-04-09T05:10:26.220Z,9.33
2023-04-09T05:13:28.897Z,7.70
2023-04-09T05:16:32.111Z,8.03
2023-04-09T05:19:37.198Z,8.27
2023-04-09T05:22:40.674Z,9.13
2023-04-09T05:25:43.579Z,7.33
2023-04-09T05:28:46.683Z,9.33
2023-04-09T05:31:49.606Z,8.93
2023-04-09T05:34:53.903Z,8.57
2023-04-09T05:37:57.021Z,10.37
2023-04-09T05:40:59.683Z,12.83
2023-04-09T05:44:02.508Z,9.37
2023-04-09T05:47:05.379Z,7.80
2023-04-09T05:50:10.474Z,10.03
2023-04-09T05:53:14.194Z,9.07
2023-04-09T05:56:17.455Z,10.70
2023-04-09T05:59:20.619Z,9.40
2023-04-09T06:02:23.605Z,9.43
2023-04-09T06:05:28.300Z,9.30
2023-04-09T06:08:31.086Z,9.97
2023-04-09T06:11:34.118Z,10.53
2023-04-09T06:14:36.921Z,8.40
2023-04-09T06:17:39.796Z,9.37
2023-04-09T06:20:44.189Z,9.80
2023-04-09T06:23:47.042Z,12.13
2023-04-09T06:26:49.910Z,8.80
2023-04-09T06:29:52.686Z,10.60
2023-04-09T06:32:55.725Z,10.20
2023-04-09T06:36:00.137Z,10.57
2023-04-09T06:39:03.362Z,9.67
2023-04-09T06:42:06.304Z,11.57
2023-04-09T06:45:09.994Z,10.03
2023-04-09T06:48:12.792Z,9.40
2023-04-09T06:51:17.189Z,9.77
2023-04-09T06:54:20.121Z,8.02
2023-04-09T06:57:22.829Z,8.25
2023-04-09T07:00:25.535Z,8.25
2023-04-09T07:03:28.824Z,7.63
2023-04-09T07:06:33.283Z,7.70
2023-04-09T07:09:36.483Z,10.00
2023-04-09T07:12:39.353Z,7.88
2023-04-09T07:15:42.681Z,8.05
2023-04-09T07:18:45.713Z,7.97
2023-04-09T07:21:49.880Z,7.88
2023-04-09T07:24:55.114Z,8.00
2023-04-09T07:27:58.029Z,8.00
2023-04-09T07:31:02.845Z,7.65
2023-04-09T07:34:06.212Z,7.78
2023-04-09T07:37:10.292Z,9.68
2023-04-09T07:40:13.547Z,7.93
2023-04-09T07:43:16.814Z,8.05
2023-04-09T07:46:21.223Z,6.85
2023-04-09T07:49:24.268Z,8.85
2023-04-09T07:52:28.561Z,8.82
2023-04-09T07:55:31.345Z,6.95
2023-04-09T07:58:34.131Z,9.70
2023-04-09T08:01:37.001Z,6.47
2023-04-09T08:04:39.961Z,5.53
2023-04-09T08:07:44.263Z,5.72
2023-04-09T08:10:47.033Z,7.00
2023-04-09T08:13:49.751Z,8.57
2023-04-09T08:16:52.501Z,5.85
2023-04-09T08:19:55.282Z,5.85
2023-04-09T08:22:59.569Z,6.47
2023-04-09T08:26:02.726Z,5.28
2023-04-09T08:29:05.597Z,3.80
2023-04-09T08:32:08.516Z,4.18
2023-04-09T08:35:11.428Z,5.13
2023-04-09T08:38:16.331Z,4.10
2023-04-09T08:41:20.895Z,4.63
2023-04-09T08:44:27.191Z,4.05
2023-04-09T08:47:30.463Z,6.07
2023-04-09T08:50:34.723Z,3.92
2023-04-09T08:53:40.405Z,4.13
2023-04-09T08:56:43.340Z,4.07
2023-04-09T08:59:46.636Z,4.32
2023-04-09T09:03:06.366Z,5.03
2023-04-09T09:06:22.014Z,4.82
2023-04-09T09:09:26.841Z,2.95
2023-04-09T09:12:38.490Z,3.38
2023-04-09T09:15:41.604Z,3.55
2023-04-09T09:18:45.618Z,4.22
2023-04-09T09:21:57.441Z,2.97
2023-04-09T09:25:01.718Z,3.72
2023-04-09T09:28:09.438Z,2.92
2023-04-09T09:31:13.680Z,3.63
2023-04-09T09:34:17.717Z,3.55
2023-04-09T09:37:28.083Z,3.13
2023-04-09T09:40:32.900Z,3.63
2023-04-09T09:43:42.391Z,4.50
2023-04-09T09:46:45.115Z,3.83
2023-04-09T09:49:49.574Z,4.15
2023-04-09T09:52:59.874Z,4.03
2023-04-09T09:56:06.726Z,4.72
2023-04-09T09:59:20.393Z,5.60
2023-04-09T10:02:26.947Z,5.25
2023-04-09T10:05:30.620Z,5.50
2023-04-09T10:08:35.988Z,5.18
2023-04-09T10:11:42.554Z,4.90
2023-04-09T10:14:46.686Z,4.70
2023-04-09T10:17:50.099Z,4.90
2023-04-09T10:20:58.777Z,5.93
2023-04-09T10:24:05.658Z,4.75
2023-04-09T10:27:15.736Z,4.55
2023-04-09T10:30:34.867Z,6.93
2023-04-09T10:33:38.657Z,3.72
2023-04-09T10:36:44.841Z,3.65
2023-04-09T10:39:48.958Z,3.95
2023-04-09T10:42:55.127Z,4.88
2023-04-09T10:45:58.969Z,4.90
2023-04-09T10:49:13.507Z,3.88
2023-04-09T10:52:16.477Z,2.88
2023-04-09T10:55:38.012Z,2.10
2023-04-09T10:58:42.240Z,3.08
2023-04-09T11:01:53.676Z,2.17
2023-04-09T11:05:06.451Z,2.83
2023-04-09T11:08:10.966Z,2.85
2023-04-09T11:11:13.878Z,3.03
2023-04-09T11:14:22.101Z,3.00
2023-04-09T11:17:24.971Z,2.53
2023-04-09T11:20:27.792Z,2.17
2023-04-09T11:23:31.492Z,3.10
2023-04-09T11:26:37.004Z,3.53
2023-04-09T11:29:42.411Z,3.90
2023-04-09T11:32:45.535Z,3.47
2023-04-09T11:35:49.149Z,3.53
2023-04-09T11:38:52.143Z,3.30
2023-04-09T11:41:55.417Z,4.10
2023-04-09T11:45:00.960Z,3.33
2023-04-09T11:48:04.446Z,2.50
2023-04-09T11:51:07.618Z,3.90
2023-04-09T11:54:10.325Z,4.43
2023-04-09T11:57:13.081Z,3.28
2023-04-09T12:00:18.951Z,2.60
2023-04-09T12:03:29.338Z,3.08
2023-04-09T12:06:32.658Z,3.58
2023-04-09T12:09:35.553Z,3.30
2023-04-09T12:12:42.888Z,3.05
2023-04-09T12:15:50.582Z,4.30
2023-04-09T12:18:55.829Z,3.50
2023-04-09T12:21:58.910Z,3.38
2023-04-09T12:25:01.733Z,3.17
2023-04-09T12:28:05.731Z,4.07
2023-04-09T12:31:12.073Z,3.20
2023-04-09T12:34:15.266Z,2.60
2023-04-09T12:37:18.161Z,3.00
2023-04-09T12:40:21.961Z,3.53
2023-04-09T12:43:24.693Z,3.28
2023-04-09T12:46:29.270Z,3.28
2023-04-09T12:49:33.091Z,3.47
2023-04-09T12:52:36.302Z,2.63
2023-04-09T12:55:40.364Z,4.20
2023-04-09T12:58:44.269Z,3.65
2023-04-09T13:01:48.650Z,2.90
2023-04-09T13:04:52.885Z,3.20
2023-04-09T13:07:55.881Z,2.88
2023-04-09T13:10:58.657Z,3.45
2023-04-09T13:14:01.643Z,3.10
2023-04-09T13:17:05.830Z,4.00
2023-04-09T13:20:09.864Z,3.17
2023-04-09T13:23:12.672Z,2.90
2023-04-09T13:26:15.591Z,2.55
2023-04-09T13:29:18.881Z,2.72
2023-04-09T13:32:24.249Z,5.05
2023-04-09T13:35:27.210Z,3.33
2023-04-09T13:38:30.027Z,2.90
2023-04-09T13:41:33.920Z,3.65
2023-04-09T13:44:36.732Z,3.55
2023-04-09T13:47:41.126Z,2.67
2023-04-09T13:50:43.952Z,2.58
2023-04-09T13:53:48.213Z,3.15
2023-04-09T13:56:51.703Z,3.13
2023-04-09T13:59:54.557Z,3.08
2023-04-09T14:02:58.941Z,3.97
2023-04-09T14:06:02.771Z,2.58
2023-04-09T14:09:05.655Z,2.90
2023-04-09T14:12:08.562Z,3.72
2023-04-09T14:15:11.931Z,3.15
2023-04-09T14:18:16.094Z,3.42
2023-04-09T14:21:19.128Z,3.22
2023-04-09T14:24:23.188Z,2.65
2023-04-09T14:27:26.001Z,2.45
2023-04-09T14:30:28.930Z,3.83
2023-04-09T14:33:33.162Z,3.33
2023-04-09T14:36:36.224Z,2.42
2023-04-09T14:39:39.366Z,3.05
2023-04-09T14:42:42.602Z,3.70
2023-04-09T14:45:45.571Z,3.15
2023-04-09T14:48:49.576Z,3.95
2023-04-09T14:51:52.425Z,3.92
2023-04-09T14:54:55.275Z,3.95
2023-04-09T14:57:58.108Z,4.38
2023-04-09T15:01:01.218Z,3.67
2023-04-09T15:04:08.376Z,6.07
2023-04-09T15:07:11.844Z,2.90
2023-04-09T15:10:15.489Z,3.50
2023-04-09T15:13:18.226Z,3.30
2023-04-09T15:16:25.958Z,3.42
2023-04-09T15:19:32.223Z,3.80
2023-04-09T15:22:34.960Z,3.45
2023-04-09T15:25:37.775Z,4.10
2023-04-09T15:28:40.614Z,2.95
2023-04-09T15:31:43.439Z,4.57
2023-04-09T15:34:47.602Z,4.07
2023-04-09T15:37:50.343Z,4.43
2023-04-09T15:40:53.155Z,3.20
2023-04-09T15:43:55.994Z,3.83
2023-04-09T15:46:58.754Z,2.75
2023-04-09T15:50:02.879Z,3.20
2023-04-09T15:53:05.653Z,3.78
2023-04-09T15:56:10.364Z,3.83
2023-04-09T15:59:16.316Z,3.30
2023-04-09T16:02:20.536Z,3.13
2023-04-09T16:05:24.801Z,3.00
2023-04-09T16:08:27.782Z,4.63
2023-04-09T16:11:30.603Z,3.45
2023-04-09T16:14:33.422Z,4.53
2023-04-09T16:17:40.781Z,2.90
2023-04-09T16:20:45.562Z,4.75
2023-04-09T16:23:48.753Z,4.55
2023-04-09T16:26:51.475Z,4.07
2023-04-09T16:29:54.200Z,3.30
2023-04-09T16:32:56.938Z,4.10
2023-04-09T16:36:01.109Z,3.88
2023-04-09T16:39:04.042Z,3.10
2023-04-09T16:42:07.055Z,3.85
2023-04-09T16:45:10.919Z,4.65
2023-04-09T16:48:13.938Z,3.67
2023-04-09T16:51:18.283Z,4.95
2023-04-09T16:54:21.234Z,4.03
2023-04-09T16:57:24.029Z,3.70
2023-04-09T17:00:27.561Z,3.95
2023-04-09T17:03:30.684Z,3.58
2023-04-09T17:06:34.829Z,4.28
2023-04-09T17:09:37.571Z,3.20
2023-04-09T17:12:40.203Z,5.45
2023-04-09T17:15:43.117Z,3.35
2023-04-09T17:18:46.892Z,4.65
2023-04-09T17:21:51.219Z,3.35
2023-04-09T17:24:53.858Z,3.22
2023-04-09T17:27:56.644Z,3.58
2023-04-09T17:30:59.367Z,4.38
2023-04-09T17:34:02.129Z,3.60
2023-04-09T17:37:06.304Z,3.30
2023-04-09T17:40:10.682Z,3.53
2023-04-09T17:43:14.169Z,4.40
2023-04-09T17:46:18.070Z,3.80
2023-04-09T17:49:22.329Z,4.35
2023-04-09T17:52:26.457Z,3.40
2023-04-09T17:55:29.118Z,4.10
2023-04-09T17:58:32.881Z,3.97
2023-04-09T18:01:35.672Z,4.80
2023-04-09T18:04:38.670Z,3.92
2023-04-09T18:07:42.845Z,3.75
2023-04-09T18:10:58.584Z,5.53
2023-04-09T18:14:11.811Z,4.47
2023-04-09T18:17:16.278Z,3.75
2023-04-09T18:20:19.507Z,4.13
2023-04-09T18:23:23.493Z,3.85
2023-04-09T18:26:26.487Z,4.93
2023-04-09T18:29:29.318Z,5.90
2023-04-09T18:32:32.228Z,6.22
2023-04-09T18:35:35.079Z,5.80
2023-04-09T18:38:39.439Z,3.67
2023-04-09T18:41:43.185Z,5.32
2023-04-09T18:44:45.965Z,5.10
2023-04-09T18:47:48.621Z,5.65
2023-04-09T18:50:52.090Z,4.70
2023-04-09T18:53:56.124Z,4.63
2023-04-09T18:56:58.870Z,4.85
2023-04-09T19:00:03.205Z,4.47
2023-04-09T19:03:06.217Z,6.35
2023-04-09T19:06:14.368Z,4.97
2023-04-09T19:09:19.002Z,4.60
2023-04-09T19:12:21.613Z,5.70
2023-04-09T19:15:26.763Z,5.13
2023-04-09T19:18:29.580Z,5.20
2023-04-09T19:21:32.262Z,5.20
2023-04-09T19:24:36.546Z,5.80
2023-04-09T19:27:39.762Z,4.72
2023-04-09T19:30:42.451Z,5.10
2023-04-09T19:33:45.162Z,7.85
2023-04-09T19:36:47.967Z,4.93
2023-04-09T19:39:53.467Z,4.25
2023-04-09T19:42:56.146Z,4.97
2023-04-09T19:45:58.799Z,5.57
2023-04-09T19:49:02.064Z,6.28
2023-04-09T19:52:06.221Z,8.43
2023-04-09T19:55:11.144Z,6.22
2023-04-09T19:58:13.853Z,5.70
2023-04-09T20:01:16.925Z,5.25
2023-04-09T20:04:19.810Z,7.13
2023-04-09T20:07:22.440Z,6.50
2023-04-09T20:10:26.591Z,9.00
2023-04-09T20:13:29.518Z,8.17
2023-04-09T20:16:32.265Z,19.60
2023-04-09T20:19:34.914Z,22.70
2023-04-09T20:22:42.814Z,31.33
2023-04-09T20:25:46.994Z,63.60
2023-04-09T20:28:49.697Z,50.20
2023-04-09T20:31:52.434Z,32.27
2023-04-09T20:34:55.078Z,22.97
2023-04-09T20:37:57.657Z,22.47
2023-04-09T20:41:02.553Z,16.47
2023-04-09T20:44:06.010Z,11.73
2023-04-09T20:47:08.683Z,10.83
2023-04-09T20:50:12.211Z,8.87
2023-04-09T20:53:15.188Z,11.17
2023-04-09T20:56:19.154Z,7.93
2023-04-09T20:59:21.730Z,8.27
2023-04-09T21:02:24.452Z,6.87
2023-04-09T21:05:27.253Z,7.60
2023-04-09T21:08:30.795Z,8.63
2023-04-09T21:11:34.744Z,7.03
2023-04-09T21:14:37.597Z,6.40
2023-04-09T21:17:40.256Z,8.50
2023-04-09T21:20:44.314Z,7.90
2023-04-09T21:23:47.010Z,7.80
2023-04-09T21:26:52.361Z,8.10
2023-04-09T21:29:55.357Z,8.87
2023-04-09T21:32:59.596Z,8.97
2023-04-09T21:36:04.321Z,9.77
2023-04-09T21:39:07.018Z,11.60
2023-04-09T21:42:11.002Z,10.90
2023-04-09T21:45:13.817Z,12.00
2023-04-09T21:48:17.294Z,12.87
2023-04-09T21:51:19.963Z,10.07
2023-04-09T21:54:22.554Z,9.10
2023-04-09T21:57:26.683Z,10.57
2023-04-09T22:00:29.450Z,10.10
2023-04-09T22:03:32.626Z,9.33
2023-04-09T22:06:35.480Z,7.37
2023-04-09T22:09:38.891Z,10.77
2023-04-09T22:12:42.886Z,6.80
2023-04-09T22:15:45.566Z,7.90
2023-04-09T22:18:48.257Z,8.87
2023-04-09T22:21:51.196Z,7.90
2023-04-09T22:24:53.852Z,8.60
2023-04-09T22:27:57.822Z,7.87
2023-04-09T22:31:01.331Z,8.97
2023-04-09T22:34:17.206Z,9.10
2023-04-09T22:37:23.134Z,8.87
2023-04-09T22:40:25.971Z,9.43
2023-04-09T22:43:29.969Z,8.73
2023-04-09T22:46:34.624Z,9.57
2023-04-09T22:49:37.580Z,9.70
2023-04-09T22:52:40.342Z,8.37
2023-04-09T22:55:45.184Z,11.03
2023-04-09T22:58:49.200Z,9.13
2023-04-09T23:01:51.932Z,9.43
2023-04-09T23:04:54.601Z,9.13
2023-04-09T23:07:57.263Z,8.73
2023-04-09T23:10:59.898Z,9.43
2023-04-09T23:14:03.874Z,10.23
2023-04-09T23:17:06.521Z,9.60
2023-04-09T23:20:11.298Z,8.43
2023-04-09T23:23:14.004Z,9.03
2023-04-09T23:26:16.610Z,8.17
2023-04-09T23:29:20.733Z,9.03
2023-04-09T23:32:23.461Z,8.00
2023-04-09T23:35:26.137Z,9.00
2023-04-09T23:38:28.812Z,8.33
2023-04-09T23:41:31.443Z,8.77
2023-04-09T23:44:35.498Z,8.40
2023-04-09T23:47:39.326Z,9.33
2023-04-09T23:50:42.768Z,8.63
2023-04-09T23:53:45.498Z,8.43
2023-04-09T23:56:48.155Z,7.33
2023-04-09T23:59:52.241Z,8.60
